createdAt,value
2023-02-15T00:00:05.826Z,20.52
2023-02-15T00:02:32.686Z,19.94
2023-02-15T00:04:59.332Z,19.85
2023-02-15T00:07:26.006Z,19.01
2023-02-15T00:09:52.667Z,19.94
2023-02-15T00:12:19.321Z,20.74
2023-02-15T00:14:45.980Z,20.68
2023-02-15T00:17:12.631Z,20.30
2023-02-15T00:19:39.315Z,19.71
2023-02-15T00:22:05.974Z,20.30
2023-02-15T00:24:32.646Z,20.60
2023-02-15T00:26:59.397Z,21.05
2023-02-15T00:29:26.063Z,22.22
2023-02-15T00:31:52.759Z,21.77
2023-02-15T00:34:21.789Z,22.19
2023-02-15T00:36:48.476Z,22.07
2023-02-15T00:39:15.510Z,20.76
2023-02-15T00:41:42.179Z,21.88
2023-02-15T00:44:08.944Z,22.00
2023-02-15T00:46:35.597Z,22.34
2023-02-15T00:49:02.270Z,20.92
2023-02-15T00:51:28.988Z,21.01
2023-02-15T00:53:55.650Z,21.71
2023-02-15T00:56:22.377Z,20.40
2023-02-15T00:58:49.036Z,19.39
2023-02-15T01:01:18.563Z,19.34
2023-02-15T01:03:45.310Z,17.82
2023-02-15T01:06:12.018Z,17.18
2023-02-15T01:08:38.736Z,17.13
2023-02-15T01:11:09.932Z,17.87
2023-02-15T01:13:36.613Z,18.73
2023-02-15T01:16:03.701Z,18.83
2023-02-15T01:18:30.642Z,18.64
2023-02-15T01:20:57.505Z,20.40
2023-02-15T01:23:24.132Z,20.12
2023-02-15T01:25:50.766Z,20.42
2023-02-15T01:28:17.402Z,21.01
2023-02-15T01:30:44.135Z,21.58
2023-02-15T01:33:11.190Z,22.35
2023-02-15T01:35:37.856Z,22.49
2023-02-15T01:38:04.491Z,22.73
2023-02-15T01:40:31.122Z,22.04
2023-02-15T01:42:57.771Z,22.13
2023-02-15T01:45:24.285Z,24.28
2023-02-15T01:48:03.210Z,22.34
2023-02-15T01:50:47.132Z,20.64
2023-02-15T01:53:37.690Z,19.09
2023-02-15T01:56:21.762Z,17.17
2023-02-15T01:58:48.400Z,16.72
2023-02-15T02:01:15.043Z,16.74
2023-02-15T02:03:47.301Z,14.94
2023-02-15T02:06:13.941Z,15.30
2023-02-15T02:08:42.094Z,16.69
2023-02-15T02:11:12.686Z,17.42
2023-02-15T02:13:40.735Z,16.02
2023-02-15T02:16:14.006Z,15.82
2023-02-15T02:19:11.297Z,16.92
2023-02-15T02:22:15.421Z,20.31
2023-02-15T02:24:41.921Z,21.47
2023-02-15T02:27:30.906Z,20.42
2023-02-15T02:30:17.728Z,21.77
2023-02-15T02:33:09.416Z,22.59
2023-02-15T02:35:50.095Z,22.94
2023-02-15T02:38:39.699Z,22.54
2023-02-15T02:41:30.103Z,21.29
2023-02-15T02:44:11.542Z,19.98
2023-02-15T02:46:39.861Z,17.49
2023-02-15T02:49:06.504Z,18.99
2023-02-15T02:51:33.126Z,17.72
2023-02-15T02:54:01.106Z,17.72
2023-02-15T02:56:41.439Z,17.65
2023-02-15T02:59:13.975Z,17.02
2023-02-15T03:01:52.946Z,16.83
2023-02-15T03:04:25.336Z,15.93
2023-02-15T03:07:05.409Z,15.89
2023-02-15T03:09:34.968Z,14.77
2023-02-15T03:12:01.990Z,14.33
2023-02-15T03:14:28.617Z,14.57
2023-02-15T03:16:55.260Z,13.98
2023-02-15T03:19:24.776Z,13.93
2023-02-15T03:21:52.842Z,13.96
2023-02-15T03:24:22.241Z,13.56
2023-02-15T03:26:50.843Z,13.39
2023-02-15T03:29:17.775Z,13.92
2023-02-15T03:31:45.827Z,14.58
2023-02-15T03:34:13.472Z,13.55
2023-02-15T03:36:51.396Z,13.80
2023-02-15T03:39:31.139Z,15.19
2023-02-15T03:42:14.034Z,13.16
2023-02-15T03:44:46.995Z,14.87
2023-02-15T03:47:16.211Z,15.91
2023-02-15T03:49:45.424Z,17.10
2023-02-15T03:52:12.109Z,15.35
2023-02-15T03:54:38.741Z,19.24
2023-02-15T03:57:05.561Z,19.98
2023-02-15T03:59:32.195Z,17.96
2023-02-15T04:02:21.964Z,18.80
2023-02-15T04:04:48.823Z,19.45
2023-02-15T04:07:15.458Z,18.52
2023-02-15T04:09:42.098Z,16.52
2023-02-15T04:12:08.720Z,17.89
2023-02-15T04:14:35.357Z,16.76
2023-02-15T04:17:02.010Z,17.32
2023-02-15T04:19:28.666Z,16.48
2023-02-15T04:21:55.316Z,17.52
2023-02-15T04:24:21.966Z,18.18
2023-02-15T04:26:48.620Z,19.09
2023-02-15T04:29:18.180Z,19.72
2023-02-15T04:31:44.908Z,20.05
2023-02-15T04:34:11.583Z,21.00
2023-02-15T04:36:39.110Z,20.97
2023-02-15T04:39:05.888Z,19.37
2023-02-15T04:41:32.739Z,19.10
2023-02-15T04:43:59.421Z,19.57
2023-02-15T04:46:26.058Z,17.79
2023-02-15T04:48:52.714Z,17.52
2023-02-15T04:51:19.464Z,16.82
2023-02-15T04:53:46.153Z,17.26
2023-02-15T04:56:12.886Z,19.38
2023-02-15T04:58:39.518Z,18.76
2023-02-15T05:01:06.210Z,17.64
2023-02-15T05:03:32.882Z,17.71
2023-02-15T05:05:59.760Z,17.43
2023-02-15T05:08:26.482Z,16.74
2023-02-15T05:10:53.137Z,18.00
2023-02-15T05:13:19.893Z,17.87
2023-02-15T05:15:50.254Z,18.67
2023-02-15T05:18:17.312Z,19.03
2023-02-15T05:20:43.997Z,18.48
2023-02-15T05:23:10.679Z,18.42
2023-02-15T05:25:37.380Z,19.44
2023-02-15T05:28:05.306Z,19.66
2023-02-15T05:30:32.319Z,19.84
2023-02-15T05:32:59.083Z,21.40
2023-02-15T05:35:25.734Z,22.29
2023-02-15T05:37:52.388Z,22.23
2023-02-15T05:40:19.086Z,21.45
2023-02-15T05:42:45.773Z,21.84
2023-02-15T05:45:12.438Z,21.64
2023-02-15T05:47:39.096Z,21.09
2023-02-15T05:50:06.343Z,20.27
2023-02-15T05:52:32.986Z,20.27
2023-02-15T05:54:59.621Z,21.28
2023-02-15T05:57:26.270Z,22.64
2023-02-15T05:59:52.906Z,22.18
2023-02-15T06:02:19.553Z,21.50
2023-02-15T06:04:46.223Z,21.04
2023-02-15T06:07:13.329Z,20.23
2023-02-15T06:09:39.999Z,19.67
2023-02-15T06:12:06.673Z,20.36
2023-02-15T06:14:33.316Z,20.81
2023-02-15T06:17:00.070Z,21.00
2023-02-15T06:19:26.741Z,23.16
2023-02-15T06:21:53.361Z,23.44
2023-02-15T06:24:20.024Z,22.65
2023-02-15T06:26:46.666Z,23.32
2023-02-15T06:29:13.358Z,25.08
2023-02-15T06:31:40.197Z,22.51
2023-02-15T06:34:07.010Z,22.65
2023-02-15T06:36:33.717Z,19.33
2023-02-15T06:39:00.386Z,18.74
2023-02-15T06:41:27.026Z,18.09
2023-02-15T06:43:53.668Z,17.29
2023-02-15T06:46:20.333Z,16.72
2023-02-15T06:48:47.202Z,16.72
2023-02-15T06:51:13.844Z,17.33
2023-02-15T06:53:40.520Z,21.77
2023-02-15T06:56:07.828Z,20.07
2023-02-15T06:58:34.476Z,19.36
2023-02-15T07:01:01.154Z,20.08
2023-02-15T07:03:27.796Z,20.38
2023-02-15T07:05:57.933Z,20.85
2023-02-15T07:08:25.198Z,19.31
2023-02-15T07:10:52.213Z,19.39
2023-02-15T07:13:18.947Z,19.54
2023-02-15T07:15:46.272Z,19.31
2023-02-15T07:18:12.929Z,18.70
2023-02-15T07:20:39.563Z,17.67
2023-02-15T07:23:06.301Z,19.12
2023-02-15T07:25:32.935Z,18.75
2023-02-15T07:28:00.143Z,18.58
2023-02-15T07:30:26.783Z,19.84
2023-02-15T07:32:57.408Z,21.52
2023-02-15T07:35:24.053Z,20.94
2023-02-15T07:37:50.669Z,20.64
2023-02-15T07:40:17.314Z,21.51
2023-02-15T07:42:43.962Z,21.34
2023-02-15T07:45:10.608Z,21.24
2023-02-15T07:47:37.263Z,24.32
2023-02-15T07:50:03.941Z,25.99
2023-02-15T07:52:30.616Z,26.15
2023-02-15T07:54:57.259Z,25.15
2023-02-15T07:57:23.915Z,24.72
2023-02-15T07:59:50.574Z,24.61
2023-02-15T08:02:18.484Z,23.96
2023-02-15T08:04:45.172Z,23.94
2023-02-15T08:07:11.833Z,25.09
2023-02-15T08:09:38.484Z,26.21
2023-02-15T08:12:05.136Z,26.46
2023-02-15T08:14:31.790Z,25.64
2023-02-15T08:17:00.192Z,34.10
2023-02-15T08:19:28.120Z,34.85
2023-02-15T08:22:05.025Z,31.34
2023-02-15T08:24:36.699Z,31.65
2023-02-15T08:27:05.754Z,31.83
2023-02-15T08:29:32.951Z,31.99
2023-02-15T08:32:07.306Z,31.92
2023-02-15T08:34:35.833Z,32.47
2023-02-15T08:37:02.859Z,31.60
2023-02-15T08:39:29.494Z,31.31
2023-02-15T08:41:56.179Z,30.74
2023-02-15T08:44:22.837Z,30.25
2023-02-15T08:46:49.697Z,30.59
2023-02-15T08:49:20.368Z,29.43
2023-02-15T08:51:47.234Z,29.63
2023-02-15T08:54:15.895Z,29.67
2023-02-15T08:56:43.231Z,29.51
2023-02-15T08:59:20.628Z,28.52
2023-02-15T09:01:47.605Z,28.79
2023-02-15T09:04:14.273Z,29.09
2023-02-15T09:06:41.536Z,29.75
2023-02-15T09:09:08.226Z,29.28
2023-02-15T09:11:36.505Z,28.76
2023-02-15T09:14:05.325Z,27.73
2023-02-15T09:16:33.754Z,25.02
2023-02-15T09:19:00.417Z,22.71
2023-02-15T09:21:27.060Z,23.57
2023-02-15T09:23:57.034Z,24.35
2023-02-15T09:26:24.153Z,24.12
2023-02-15T09:28:53.214Z,23.16
2023-02-15T09:31:21.243Z,24.36
2023-02-15T09:33:48.563Z,24.63
2023-02-15T09:36:26.086Z,24.33
2023-02-15T09:39:13.639Z,24.06
2023-02-15T09:41:40.134Z,24.04
2023-02-15T09:44:18.155Z,22.75
2023-02-15T09:47:14.007Z,22.73
2023-02-15T09:49:50.450Z,22.90
2023-02-15T09:52:44.830Z,23.55
2023-02-15T09:55:23.732Z,24.68
2023-02-15T09:58:19.650Z,26.13
2023-02-15T10:00:55.760Z,26.66
2023-02-15T10:03:31.857Z,27.82
2023-02-15T10:06:24.754Z,29.18
2023-02-15T10:09:00.444Z,29.47
2023-02-15T10:11:33.077Z,29.72
2023-02-15T10:14:10.982Z,28.87
2023-02-15T10:17:04.259Z,29.80
2023-02-15T10:19:43.377Z,29.21
2023-02-15T10:22:14.249Z,26.88
2023-02-15T10:24:48.807Z,29.69
2023-02-15T10:27:21.995Z,32.64
2023-02-15T10:30:11.068Z,32.56
2023-02-15T10:33:10.050Z,33.62
2023-02-15T10:36:12.138Z,34.15
2023-02-15T10:38:56.842Z,33.43
2023-02-15T10:41:30.397Z,33.68
2023-02-15T10:44:09.332Z,34.21
2023-02-15T10:47:27.536Z,32.88
2023-02-15T10:50:07.492Z,33.65
2023-02-15T10:52:52.600Z,32.20
2023-02-15T10:55:44.230Z,33.79
2023-02-15T10:58:45.695Z,33.55
2023-02-15T11:01:20.026Z,32.32
2023-02-15T11:04:06.642Z,32.15
2023-02-15T11:06:33.307Z,32.12
2023-02-15T11:09:05.029Z,31.08
2023-02-15T11:11:41.099Z,33.19
2023-02-15T11:14:16.642Z,32.88
2023-02-15T11:16:47.898Z,32.40
2023-02-15T11:19:35.160Z,31.75
2023-02-15T11:22:05.770Z,30.92
2023-02-15T11:24:41.346Z,31.13
2023-02-15T11:27:20.001Z,32.13
2023-02-15T11:30:07.251Z,31.49
2023-02-15T11:32:33.783Z,31.69
2023-02-15T11:35:12.346Z,32.04
2023-02-15T11:38:09.788Z,32.20
2023-02-15T11:40:40.539Z,31.29
2023-02-15T11:43:33.442Z,32.71
2023-02-15T11:46:00.121Z,31.71
2023-02-15T11:48:26.775Z,31.98
2023-02-15T11:50:53.406Z,32.71
2023-02-15T11:53:21.952Z,32.80
2023-02-15T11:55:49.432Z,32.56
2023-02-15T11:58:53.927Z,32.28
2023-02-15T12:01:44.272Z,34.31
2023-02-15T12:04:31.295Z,34.48
2023-02-15T12:07:10.453Z,33.74
2023-02-15T12:09:50.195Z,34.94
2023-02-15T12:12:26.813Z,34.39
2023-02-15T12:14:57.643Z,35.03
2023-02-15T12:17:28.753Z,35.62
2023-02-15T12:20:03.416Z,36.31
2023-02-15T12:22:35.244Z,35.79
2023-02-15T12:25:03.674Z,35.75
2023-02-15T12:27:34.257Z,36.17
2023-02-15T12:30:20.268Z,37.75
2023-02-15T12:32:58.435Z,35.65
2023-02-15T12:35:32.598Z,36.25
2023-02-15T12:38:11.312Z,37.03
2023-02-15T12:40:38.101Z,36.87
2023-02-15T12:43:08.973Z,37.28
2023-02-15T12:45:37.325Z,37.84
2023-02-15T12:48:10.937Z,37.49
2023-02-15T12:50:37.634Z,37.83
2023-02-15T12:53:21.466Z,37.35
2023-02-15T12:56:14.531Z,36.87
2023-02-15T12:58:41.433Z,38.45
2023-02-15T13:01:19.185Z,38.56
2023-02-15T13:03:59.335Z,37.74
2023-02-15T13:06:27.039Z,37.72
2023-02-15T13:08:54.877Z,36.90
2023-02-15T13:11:31.287Z,37.11
2023-02-15T13:14:00.495Z,36.04
2023-02-15T13:16:33.018Z,35.81
2023-02-15T13:19:00.502Z,36.55
2023-02-15T13:21:29.114Z,36.37
2023-02-15T13:24:00.249Z,36.26
2023-02-15T13:26:27.661Z,35.19
2023-02-15T13:28:56.464Z,35.27
2023-02-15T13:31:25.221Z,34.26
2023-02-15T13:33:56.186Z,33.31
2023-02-15T13:36:32.040Z,32.12
2023-02-15T13:39:20.408Z,31.18
2023-02-15T13:41:54.292Z,27.52
2023-02-15T13:44:42.374Z,27.27
2023-02-15T13:47:28.740Z,27.51
2023-02-15T13:50:08.757Z,25.49
2023-02-15T13:52:40.259Z,27.10
2023-02-15T13:55:26.335Z,29.37
2023-02-15T13:58:20.551Z,30.92
2023-02-15T14:00:49.396Z,33.08
2023-02-15T14:03:20.260Z,33.08
2023-02-15T14:05:56.519Z,30.13
2023-02-15T14:08:32.750Z,28.86
2023-02-15T14:11:36.895Z,27.62
2023-02-15T14:14:24.300Z,29.14
2023-02-15T14:17:12.853Z,30.44
2023-02-15T14:20:02.052Z,29.08
2023-02-15T14:22:34.770Z,29.88
2023-02-15T14:25:25.816Z,30.63
2023-02-15T14:28:04.373Z,31.61
2023-02-15T14:30:35.890Z,31.79
2023-02-15T14:33:09.352Z,32.95
2023-02-15T14:35:36.106Z,33.86
2023-02-15T14:38:20.310Z,33.14
2023-02-15T14:40:55.463Z,32.29
2023-02-15T14:43:32.337Z,32.59
2023-02-15T14:46:09.619Z,31.47
2023-02-15T14:48:42.403Z,31.09
2023-02-15T14:51:09.355Z,31.96
2023-02-15T14:53:37.436Z,33.30
2023-02-15T14:56:21.531Z,31.97
2023-02-15T14:58:56.809Z,29.55
2023-02-15T15:01:28.537Z,26.53
2023-02-15T15:03:56.933Z,25.64
2023-02-15T15:06:42.858Z,25.29
2023-02-15T15:09:23.543Z,27.06
2023-02-15T15:11:52.908Z,27.55
2023-02-15T15:14:34.586Z,30.19
2023-02-15T15:17:02.096Z,35.92
2023-02-15T15:19:54.025Z,37.20
2023-02-15T15:22:21.417Z,37.88
2023-02-15T15:24:49.570Z,37.08
2023-02-15T15:27:37.973Z,33.18
2023-02-15T15:30:24.814Z,33.22
2023-02-15T15:32:57.213Z,31.78
2023-02-15T15:35:54.453Z,31.69
2023-02-15T15:38:58.495Z,27.82
2023-02-15T15:41:28.012Z,27.17
2023-02-15T15:44:21.307Z,27.18
2023-02-15T15:47:06.558Z,27.81
2023-02-15T15:49:33.784Z,26.58
2023-02-15T15:52:04.563Z,26.72
2023-02-15T15:54:31.246Z,26.74
2023-02-15T15:57:00.179Z,26.85
2023-02-15T15:59:28.991Z,27.12
2023-02-15T16:01:55.689Z,27.63
2023-02-15T16:04:29.977Z,26.88
2023-02-15T16:07:06.280Z,27.30
2023-02-15T16:09:32.898Z,29.67
2023-02-15T16:11:59.781Z,30.37
2023-02-15T16:14:39.918Z,31.26
2023-02-15T16:17:08.135Z,32.28
2023-02-15T16:19:40.051Z,33.18
2023-02-15T16:22:11.197Z,35.13
2023-02-15T16:25:00.697Z,35.32
2023-02-15T16:27:40.046Z,35.73
2023-02-15T16:30:29.801Z,34.43
2023-02-15T16:33:04.252Z,34.58
2023-02-15T16:35:30.907Z,32.76
2023-02-15T16:37:57.540Z,32.37
2023-02-15T16:40:24.153Z,32.26
2023-02-15T16:42:57.938Z,32.02
2023-02-15T16:45:25.374Z,32.46
2023-02-15T16:47:54.372Z,32.38
2023-02-15T16:50:23.220Z,31.81
2023-02-15T16:52:49.913Z,31.98
2023-02-15T16:55:29.777Z,31.75
2023-02-15T16:57:58.082Z,31.79
2023-02-15T17:00:26.717Z,33.52
2023-02-15T17:03:03.980Z,31.82
2023-02-15T17:05:32.179Z,31.61
2023-02-15T17:08:18.582Z,31.44
2023-02-15T17:10:47.083Z,31.22
2023-02-15T17:13:17.387Z,31.68
2023-02-15T17:16:21.233Z,32.01
2023-02-15T17:18:47.904Z,31.61
2023-02-15T17:21:18.054Z,31.66
2023-02-15T17:23:49.322Z,32.37
2023-02-15T17:26:16.884Z,31.81
2023-02-15T17:28:48.923Z,30.25
2023-02-15T17:31:16.316Z,29.81
2023-02-15T17:33:43.301Z,29.81
2023-02-15T17:36:19.621Z,29.91
2023-02-15T17:38:58.215Z,30.20
2023-02-15T17:41:25.464Z,30.38
2023-02-15T17:43:52.120Z,30.08
2023-02-15T17:46:18.792Z,32.63
2023-02-15T17:48:47.286Z,34.42
2023-02-15T17:51:14.290Z,30.07
2023-02-15T17:53:41.410Z,29.77
2023-02-15T17:56:08.130Z,29.67
2023-02-15T17:58:34.859Z,32.85
2023-02-15T18:01:01.836Z,33.80
2023-02-15T18:03:55.205Z,32.42
2023-02-15T18:06:21.851Z,34.40
2023-02-15T18:08:48.526Z,30.70
2023-02-15T18:11:15.195Z,29.73
2023-02-15T18:13:41.837Z,27.76
2023-02-15T18:16:21.050Z,27.49
2023-02-15T18:18:47.719Z,24.99
2023-02-15T18:21:15.378Z,22.11
2023-02-15T18:23:42.013Z,20.78
2023-02-15T18:26:10.836Z,20.50
2023-02-15T18:28:37.485Z,21.22
2023-02-15T18:31:04.449Z,20.49
2023-02-15T18:33:35.491Z,20.23
2023-02-15T18:36:03.047Z,19.94
2023-02-15T18:38:30.130Z,18.52
2023-02-15T18:40:56.781Z,18.62
2023-02-15T18:43:23.405Z,18.69
2023-02-15T18:45:50.106Z,19.36
2023-02-15T18:48:16.760Z,18.65
2023-02-15T18:50:43.389Z,20.30
2023-02-15T18:53:20.563Z,20.09
2023-02-15T18:55:47.227Z,18.50
2023-02-15T18:58:16.099Z,19.82
2023-02-15T19:00:42.728Z,20.99
2023-02-15T19:03:09.497Z,25.94
2023-02-15T19:05:36.186Z,24.11
2023-02-15T19:08:02.837Z,22.65
2023-02-15T19:10:31.419Z,24.83
2023-02-15T19:12:58.182Z,23.41
2023-02-15T19:15:26.694Z,22.76
2023-02-15T19:17:53.975Z,20.90
2023-02-15T19:20:22.524Z,20.59
2023-02-15T19:22:49.779Z,20.23
2023-02-15T19:25:24.011Z,21.10
2023-02-15T19:27:50.840Z,19.03
2023-02-15T19:30:19.010Z,19.27
2023-02-15T19:32:45.736Z,19.13
2023-02-15T19:35:19.322Z,18.75
2023-02-15T19:37:47.192Z,19.21
2023-02-15T19:40:27.367Z,18.62
2023-02-15T19:42:54.022Z,17.55
2023-02-15T19:45:22.393Z,17.25
2023-02-15T19:47:49.037Z,17.40
2023-02-15T19:50:16.562Z,17.05
2023-02-15T19:52:43.213Z,18.33
2023-02-15T19:55:16.285Z,19.79
2023-02-15T19:57:42.950Z,20.49
2023-02-15T20:00:23.253Z,19.89
2023-02-15T20:02:49.902Z,19.73
2023-02-15T20:05:16.546Z,19.22
2023-02-15T20:07:44.392Z,19.42
2023-02-15T20:10:15.569Z,19.63
2023-02-15T20:12:42.729Z,19.92
2023-02-15T20:15:19.586Z,19.88
2023-02-15T20:17:46.225Z,19.85
2023-02-15T20:20:13.286Z,18.58
2023-02-15T20:22:40.446Z,17.87
2023-02-15T20:25:11.290Z,18.14
2023-02-15T20:27:37.937Z,17.61
2023-02-15T20:30:06.797Z,16.97
2023-02-15T20:32:33.570Z,19.09
2023-02-15T20:35:00.240Z,20.14
2023-02-15T20:37:27.474Z,20.01
2023-02-15T20:39:54.300Z,18.90
2023-02-15T20:42:20.943Z,18.67
2023-02-15T20:44:47.606Z,19.33
2023-02-15T20:47:14.329Z,18.07
2023-02-15T20:49:41.020Z,17.32
2023-02-15T20:52:17.600Z,18.78
2023-02-15T20:54:44.265Z,19.13
2023-02-15T20:57:13.590Z,18.48
2023-02-15T20:59:40.290Z,19.54
2023-02-15T21:02:25.083Z,20.54
2023-02-15T21:04:54.476Z,20.13
2023-02-15T21:07:22.664Z,19.43
2023-02-15T21:09:50.270Z,19.37
2023-02-15T21:12:19.907Z,19.53
2023-02-15T21:14:47.510Z,19.54
2023-02-15T21:17:17.184Z,19.15
2023-02-15T21:19:44.877Z,20.80
2023-02-15T21:22:17.364Z,19.55
2023-02-15T21:24:48.802Z,20.06
2023-02-15T21:27:19.365Z,19.87
2023-02-15T21:29:47.247Z,19.15
2023-02-15T21:32:15.975Z,19.23
2023-02-15T21:34:44.417Z,20.32
2023-02-15T21:37:25.441Z,20.31
2023-02-15T21:39:52.702Z,19.88
2023-02-15T21:42:19.840Z,23.51
2023-02-15T21:44:46.916Z,22.99
2023-02-15T21:47:23.514Z,23.94
2023-02-15T21:49:52.180Z,23.07
2023-02-15T21:52:22.537Z,23.19
2023-02-15T21:54:50.353Z,23.03
2023-02-15T21:57:18.713Z,19.74
2023-02-15T21:59:46.534Z,19.66
2023-02-15T22:02:29.181Z,17.27
2023-02-15T22:04:56.760Z,20.66
2023-02-15T22:07:25.383Z,17.42
2023-02-15T22:09:52.987Z,16.47
2023-02-15T22:12:20.582Z,16.72
2023-02-15T22:14:50.927Z,17.38
2023-02-15T22:17:19.549Z,17.44
2023-02-15T22:19:47.454Z,18.46
2023-02-15T22:22:15.025Z,17.23
2023-02-15T22:24:42.669Z,16.94
2023-02-15T22:27:22.497Z,16.65
2023-02-15T22:29:49.548Z,16.89
2023-02-15T22:32:21.689Z,18.05
2023-02-15T22:34:49.102Z,18.09
2023-02-15T22:37:16.714Z,18.14
2023-02-15T22:39:44.337Z,19.11
2023-02-15T22:42:38.020Z,18.14
2023-02-15T22:45:07.913Z,17.85
2023-02-15T22:47:34.944Z,17.04
2023-02-15T22:50:02.840Z,16.64
2023-02-15T22:52:30.477Z,16.29
2023-02-15T22:54:58.088Z,16.23
2023-02-15T22:57:31.669Z,16.00
2023-02-15T22:59:59.251Z,14.65
2023-02-15T23:02:27.862Z,14.58
2023-02-15T23:04:55.466Z,14.58
2023-02-15T23:07:23.080Z,14.39
2023-02-15T23:09:50.672Z,14.83
2023-02-15T23:12:23.253Z,14.65
2023-02-15T23:14:50.842Z,15.08
2023-02-15T23:17:18.468Z,14.92
2023-02-15T23:19:46.026Z,15.26
2023-02-15T23:22:15.640Z,14.47
2023-02-15T23:24:44.239Z,14.47
2023-02-15T23:27:17.862Z,15.70
2023-02-15T23:29:45.467Z,16.41
2023-02-15T23:32:13.220Z,15.00
2023-02-15T23:34:40.660Z,12.84
2023-02-15T23:37:12.292Z,14.19
2023-02-15T23:39:39.901Z,15.06
2023-02-15T23:42:21.557Z,15.64
2023-02-15T23:44:50.130Z,14.27
2023-02-15T23:47:24.619Z,14.31
2023-02-15T23:49:52.361Z,14.40
2023-02-15T23:52:19.957Z,13.06
2023-02-15T23:54:46.993Z,12.47
2023-02-15T23:57:13.706Z,12.13
2023-02-15T23:59:40.749Z,13.02
